sensor_id;sensor_type;location;lat;lon;timestamp;P1;durP1;ratioP1;P2;durP2;ratioP2
16159;SDS011;8185;57.818;15.224;2024-01-16T00:00:34;0.87;;;0.83;;
16159;SDS011;8185;57.818;15.224;2024-01-16T00:03:02;4.20;;;1.10;;
16159;SDS011;8185;57.818;15.224;2024-01-16T00:05:30;3.93;;;1.10;;
16159;SDS011;8185;57.818;15.224;2024-01-16T00:07:58;1.83;;;1.17;;
16159;SDS011;8185;57.818;15.224;2024-01-16T00:10:25;1.70;;;1.00;;
16159;SDS011;8185;57.818;15.224;2024-01-16T00:12:52;1.13;;;0.80;;
16159;SDS011;8185;57.818;15.224;2024-01-16T00:15:19;2.07;;;0.90;;
16159;SDS011;8185;57.818;15.224;2024-01-16T00:17:47;2.67;;;1.10;;
16159;SDS011;8185;57.818;15.224;2024-01-16T00:20:14;1.40;;;1.00;;
16159;SDS011;8185;57.818;15.224;2024-01-16T00:22:43;1.33;;;0.90;;
16159;SDS011;8185;57.818;15.224;2024-01-16T00:25:10;1.17;;;1.07;;
16159;SDS011;8185;57.818;15.224;2024-01-16T00:27:37;2.57;;;1.20;;
16159;SDS011;8185;57.818;15.224;2024-01-16T00:30:05;0.97;;;0.83;;
16159;SDS011;8185;57.818;15.224;2024-01-16T00:32:34;1.53;;;1.00;;
16159;SDS011;8185;57.818;15.224;2024-01-16T00:35:01;3.50;;;1.10;;
16159;SDS011;8185;57.818;15.224;2024-01-16T00:37:29;1.90;;;1.00;;
16159;SDS011;8185;57.818;15.224;2024-01-16T00:39:57;1.00;;;0.90;;
16159;SDS011;8185;57.818;15.224;2024-01-16T00:42:25;1.53;;;1.10;;
16159;SDS011;8185;57.818;15.224;2024-01-16T00:44:52;1.33;;;0.90;;
16159;SDS011;8185;57.818;15.224;2024-01-16T00:47:19;1.43;;;1.00;;
16159;SDS011;8185;57.818;15.224;2024-01-16T00:49:47;1.13;;;1.00;;
16159;SDS011;8185;57.818;15.224;2024-01-16T00:52:14;1.90;;;1.10;;
16159;SDS011;8185;57.818;15.224;2024-01-16T00:54:42;3.10;;;1.20;;
16159;SDS011;8185;57.818;15.224;2024-01-16T00:57:11;2.13;;;1.00;;
16159;SDS011;8185;57.818;15.224;2024-01-16T00:59:40;1.67;;;1.07;;
16159;SDS011;8185;57.818;15.224;2024-01-16T01:02:07;1.57;;;1.00;;
16159;SDS011;8185;57.818;15.224;2024-01-16T01:04:35;1.63;;;1.10;;
16159;SDS011;8185;57.818;15.224;2024-01-16T01:07:02;2.00;;;1.20;;
16159;SDS011;8185;57.818;15.224;2024-01-16T01:09:32;2.10;;;0.80;;
16159;SDS011;8185;57.818;15.224;2024-01-16T01:11:59;1.83;;;0.90;;
16159;SDS011;8185;57.818;15.224;2024-01-16T01:14:28;1.90;;;1.03;;
16159;SDS011;8185;57.818;15.224;2024-01-16T01:16:56;1.40;;;1.10;;
16159;SDS011;8185;57.818;15.224;2024-01-16T01:19:23;1.20;;;0.97;;
16159;SDS011;8185;57.818;15.224;2024-01-16T01:21:51;1.27;;;1.00;;
16159;SDS011;8185;57.818;15.224;2024-01-16T01:24:18;1.10;;;1.00;;
16159;SDS011;8185;57.818;15.224;2024-01-16T01:26:45;2.00;;;1.03;;
16159;SDS011;8185;57.818;15.224;2024-01-16T01:29:12;1.27;;;1.00;;
16159;SDS011;8185;57.818;15.224;2024-01-16T01:31:42;1.93;;;0.90;;
16159;SDS011;8185;57.818;15.224;2024-01-16T01:34:13;0.90;;;0.90;;
16159;SDS011;8185;57.818;15.224;2024-01-16T01:36:40;0.80;;;0.80;;
16159;SDS011;8185;57.818;15.224;2024-01-16T01:39:08;1.43;;;0.80;;
16159;SDS011;8185;57.818;15.224;2024-01-16T01:41:37;2.07;;;0.87;;
16159;SDS011;8185;57.818;15.224;2024-01-16T01:44:05;3.80;;;0.90;;
16159;SDS011;8185;57.818;15.224;2024-01-16T01:46:33;0.70;;;0.70;;
16159;SDS011;8185;57.818;15.224;2024-01-16T01:49:02;1.57;;;1.00;;
16159;SDS011;8185;57.818;15.224;2024-01-16T01:51:30;0.97;;;0.90;;
16159;SDS011;8185;57.818;15.224;2024-01-16T01:53:57;1.47;;;0.80;;
16159;SDS011;8185;57.818;15.224;2024-01-16T01:56:26;1.00;;;0.90;;
16159;SDS011;8185;57.818;15.224;2024-01-16T01:58:56;1.27;;;1.03;;
16159;SDS011;8185;57.818;15.224;2024-01-16T02:01:24;3.13;;;1.40;;
16159;SDS011;8185;57.818;15.224;2024-01-16T02:03:54;2.30;;;1.40;;
16159;SDS011;8185;57.818;15.224;2024-01-16T02:06:25;1.47;;;1.00;;
16159;SDS011;8185;57.818;15.224;2024-01-16T02:08:52;2.97;;;1.10;;
16159;SDS011;8185;57.818;15.224;2024-01-16T02:11:20;1.33;;;1.00;;
16159;SDS011;8185;57.818;15.224;2024-01-16T02:13:47;1.43;;;0.90;;
16159;SDS011;8185;57.818;15.224;2024-01-16T02:16:17;1.43;;;1.27;;
16159;SDS011;8185;57.818;15.224;2024-01-16T02:18:45;1.93;;;0.90;;
16159;SDS011;8185;57.818;15.224;2024-01-16T02:21:12;1.50;;;1.00;;
16159;SDS011;8185;57.818;15.224;2024-01-16T02:23:47;1.10;;;0.90;;
16159;SDS011;8185;57.818;15.224;2024-01-16T02:26:14;1.47;;;1.13;;
16159;SDS011;8185;57.818;15.224;2024-01-16T02:28:42;2.50;;;1.10;;
16159;SDS011;8185;57.818;15.224;2024-01-16T02:31:09;2.73;;;1.27;;
16159;SDS011;8185;57.818;15.224;2024-01-16T02:33:36;1.20;;;1.10;;
16159;SDS011;8185;57.818;15.224;2024-01-16T02:36:04;1.27;;;1.00;;
16159;SDS011;8185;57.818;15.224;2024-01-16T02:38:31;1.27;;;1.00;;
16159;SDS011;8185;57.818;15.224;2024-01-16T02:41:00;1.87;;;1.27;;
16159;SDS011;8185;57.818;15.224;2024-01-16T02:43:27;1.27;;;1.10;;
16159;SDS011;8185;57.818;15.224;2024-01-16T02:45:54;1.97;;;1.40;;
16159;SDS011;8185;57.818;15.224;2024-01-16T02:48:23;1.40;;;1.00;;
16159;SDS011;8185;57.818;15.224;2024-01-16T02:50:50;1.30;;;1.17;;
16159;SDS011;8185;57.818;15.224;2024-01-16T02:53:18;1.33;;;1.10;;
16159;SDS011;8185;57.818;15.224;2024-01-16T02:55:45;1.37;;;1.00;;
16159;SDS011;8185;57.818;15.224;2024-01-16T02:58:13;1.63;;;1.40;;
16159;SDS011;8185;57.818;15.224;2024-01-16T03:00:41;1.00;;;0.90;;
16159;SDS011;8185;57.818;15.224;2024-01-16T03:03:08;1.30;;;1.20;;
16159;SDS011;8185;57.818;15.224;2024-01-16T03:05:35;2.93;;;0.97;;
16159;SDS011;8185;57.818;15.224;2024-01-16T03:08:03;1.33;;;1.10;;
16159;SDS011;8185;57.818;15.224;2024-01-16T03:10:30;1.80;;;1.03;;
16159;SDS011;8185;57.818;15.224;2024-01-16T03:12:57;1.37;;;1.10;;
16159;SDS011;8185;57.818;15.224;2024-01-16T03:15:26;1.70;;;1.40;;
16159;SDS011;8185;57.818;15.224;2024-01-16T03:17:56;2.90;;;1.40;;
16159;SDS011;8185;57.818;15.224;2024-01-16T03:20:23;3.90;;;1.47;;
16159;SDS011;8185;57.818;15.224;2024-01-16T03:22:50;2.03;;;1.10;;
16159;SDS011;8185;57.818;15.224;2024-01-16T03:25:18;1.90;;;1.10;;
16159;SDS011;8185;57.818;15.224;2024-01-16T03:27:46;1.33;;;1.00;;
16159;SDS011;8185;57.818;15.224;2024-01-16T03:30:13;0.93;;;0.90;;
16159;SDS011;8185;57.818;15.224;2024-01-16T03:32:42;3.37;;;1.60;;
16159;SDS011;8185;57.818;15.224;2024-01-16T03:35:10;1.00;;;1.00;;
16159;SDS011;8185;57.818;15.224;2024-01-16T03:37:37;1.23;;;1.00;;
16159;SDS011;8185;57.818;15.224;2024-01-16T03:40:05;3.80;;;1.10;;
16159;SDS011;8185;57.818;15.224;2024-01-16T03:42:33;3.60;;;1.70;;
16159;SDS011;8185;57.818;15.224;2024-01-16T03:45:00;1.53;;;1.40;;
16159;SDS011;8185;57.818;15.224;2024-01-16T03:47:28;1.73;;;1.10;;
16159;SDS011;8185;57.818;15.224;2024-01-16T03:49:56;1.53;;;1.20;;
16159;SDS011;8185;57.818;15.224;2024-01-16T03:52:24;1.90;;;1.00;;
16159;SDS011;8185;57.818;15.224;2024-01-16T03:54:51;0.80;;;0.80;;
16159;SDS011;8185;57.818;15.224;2024-01-16T03:57:18;1.10;;;1.00;;
16159;SDS011;8185;57.818;15.224;2024-01-16T03:59:45;1.20;;;1.00;;
16159;SDS011;8185;57.818;15.224;2024-01-16T04:02:12;1.60;;;1.17;;
16159;SDS011;8185;57.818;15.224;2024-01-16T04:04:40;2.00;;;1.03;;
16159;SDS011;8185;57.818;15.224;2024-01-16T04:07:08;1.30;;;1.20;;
16159;SDS011;8185;57.818;15.224;2024-01-16T04:09:36;4.57;;;1.53;;
16159;SDS011;8185;57.818;15.224;2024-01-16T04:12:03;1.47;;;1.33;;
16159;SDS011;8185;57.818;15.224;2024-01-16T04:14:33;1.40;;;1.30;;
16159;SDS011;8185;57.818;15.224;2024-01-16T04:17:01;2.40;;;2.23;;
16159;SDS011;8185;57.818;15.224;2024-01-16T04:19:28;1.43;;;1.23;;
16159;SDS011;8185;57.818;15.224;2024-01-16T04:21:59;1.67;;;1.30;;
16159;SDS011;8185;57.818;15.224;2024-01-16T04:24:28;2.93;;;1.63;;
16159;SDS011;8185;57.818;15.224;2024-01-16T04:26:55;1.70;;;1.30;;
16159;SDS011;8185;57.818;15.224;2024-01-16T04:29:22;3.40;;;1.77;;
16159;SDS011;8185;57.818;15.224;2024-01-16T04:31:50;1.37;;;1.00;;
16159;SDS011;8185;57.818;15.224;2024-01-16T04:34:17;1.60;;;1.20;;
16159;SDS011;8185;57.818;15.224;2024-01-16T04:36:44;2.27;;;1.20;;
16159;SDS011;8185;57.818;15.224;2024-01-16T04:39:12;1.43;;;1.20;;
16159;SDS011;8185;57.818;15.224;2024-01-16T04:41:40;1.20;;;1.10;;
16159;SDS011;8185;57.818;15.224;2024-01-16T04:44:07;1.57;;;1.20;;
16159;SDS011;8185;57.818;15.224;2024-01-16T04:46:35;2.30;;;1.07;;
16159;SDS011;8185;57.818;15.224;2024-01-16T04:49:02;1.40;;;1.20;;
16159;SDS011;8185;57.818;15.224;2024-01-16T04:51:29;1.20;;;1.07;;
16159;SDS011;8185;57.818;15.224;2024-01-16T04:53:56;1.57;;;1.20;;
16159;SDS011;8185;57.818;15.224;2024-01-16T04:56:23;5.47;;;1.33;;
16159;SDS011;8185;57.818;15.224;2024-01-16T04:58:52;1.23;;;1.10;;
16159;SDS011;8185;57.818;15.224;2024-01-16T05:01:19;1.73;;;0.93;;
16159;SDS011;8185;57.818;15.224;2024-01-16T05:03:46;0.90;;;0.80;;
16159;SDS011;8185;57.818;15.224;2024-01-16T05:06:14;0.70;;;0.70;;
16159;SDS011;8185;57.818;15.224;2024-01-16T05:08:41;2.53;;;0.90;;
16159;SDS011;8185;57.818;15.224;2024-01-16T05:11:09;1.17;;;0.80;;
16159;SDS011;8185;57.818;15.224;2024-01-16T05:13:36;1.67;;;0.90;;
16159;SDS011;8185;57.818;15.224;2024-01-16T05:16:05;2.27;;;1.00;;
16159;SDS011;8185;57.818;15.224;2024-01-16T05:18:33;1.30;;;1.20;;
16159;SDS011;8185;57.818;15.224;2024-01-16T05:21:00;2.60;;;0.80;;
16159;SDS011;8185;57.818;15.224;2024-01-16T05:23:28;1.30;;;1.20;;
16159;SDS011;8185;57.818;15.224;2024-01-16T05:25:55;2.00;;;0.90;;
16159;SDS011;8185;57.818;15.224;2024-01-16T05:28:23;2.33;;;1.40;;
16159;SDS011;8185;57.818;15.224;2024-01-16T05:30:50;1.47;;;1.33;;
16159;SDS011;8185;57.818;15.224;2024-01-16T05:33:19;1.70;;;1.50;;
16159;SDS011;8185;57.818;15.224;2024-01-16T05:35:46;2.30;;;2.10;;
16159;SDS011;8185;57.818;15.224;2024-01-16T05:38:14;2.40;;;1.20;;
16159;SDS011;8185;57.818;15.224;2024-01-16T05:40:41;1.03;;;0.70;;
16159;SDS011;8185;57.818;15.224;2024-01-16T05:43:09;1.10;;;1.10;;
16159;SDS011;8185;57.818;15.224;2024-01-16T05:45:36;1.10;;;0.80;;
16159;SDS011;8185;57.818;15.224;2024-01-16T05:48:03;4.87;;;1.00;;
16159;SDS011;8185;57.818;15.224;2024-01-16T05:50:34;2.03;;;1.10;;
16159;SDS011;8185;57.818;15.224;2024-01-16T05:53:03;1.00;;;1.00;;
16159;SDS011;8185;57.818;15.224;2024-01-16T05:55:31;1.30;;;0.97;;
16159;SDS011;8185;57.818;15.224;2024-01-16T05:58:00;1.53;;;1.43;;
16159;SDS011;8185;57.818;15.224;2024-01-16T06:00:27;1.00;;;1.00;;
16159;SDS011;8185;57.818;15.224;2024-01-16T06:02:55;1.43;;;1.20;;
16159;SDS011;8185;57.818;15.224;2024-01-16T06:05:22;0.93;;;0.90;;
16159;SDS011;8185;57.818;15.224;2024-01-16T06:07:51;1.00;;;0.90;;
16159;SDS011;8185;57.818;15.224;2024-01-16T06:10:18;0.70;;;0.70;;
16159;SDS011;8185;57.818;15.224;2024-01-16T06:12:46;0.90;;;0.90;;
16159;SDS011;8185;57.818;15.224;2024-01-16T06:15:13;0.83;;;0.60;;
16159;SDS011;8185;57.818;15.224;2024-01-16T06:17:40;1.43;;;0.93;;
16159;SDS011;8185;57.818;15.224;2024-01-16T06:20:08;0.97;;;0.80;;
16159;SDS011;8185;57.818;15.224;2024-01-16T06:22:36;0.60;;;0.60;;
16159;SDS011;8185;57.818;15.224;2024-01-16T06:25:05;1.10;;;0.93;;
16159;SDS011;8185;57.818;15.224;2024-01-16T06:27:32;1.50;;;0.70;;
16159;SDS011;8185;57.818;15.224;2024-01-16T06:30:00;1.60;;;0.90;;
16159;SDS011;8185;57.818;15.224;2024-01-16T06:32:29;1.10;;;0.90;;
16159;SDS011;8185;57.818;15.224;2024-01-16T06:34:56;1.53;;;0.80;;
16159;SDS011;8185;57.818;15.224;2024-01-16T06:37:23;1.37;;;1.10;;
16159;SDS011;8185;57.818;15.224;2024-01-16T06:39:51;1.13;;;0.90;;
16159;SDS011;8185;57.818;15.224;2024-01-16T06:42:19;1.00;;;0.90;;
16159;SDS011;8185;57.818;15.224;2024-01-16T06:44:47;0.77;;;0.77;;
16159;SDS011;8185;57.818;15.224;2024-01-16T06:47:14;0.80;;;0.80;;
16159;SDS011;8185;57.818;15.224;2024-01-16T06:49:41;1.73;;;1.30;;
16159;SDS011;8185;57.818;15.224;2024-01-16T06:52:08;2.23;;;1.40;;
16159;SDS011;8185;57.818;15.224;2024-01-16T06:54:35;0.80;;;0.70;;
16159;SDS011;8185;57.818;15.224;2024-01-16T06:57:03;1.07;;;1.00;;
16159;SDS011;8185;57.818;15.224;2024-01-16T06:59:32;2.33;;;1.70;;
16159;SDS011;8185;57.818;15.224;2024-01-16T07:01:59;1.93;;;1.50;;
16159;SDS011;8185;57.818;15.224;2024-01-16T07:04:26;1.50;;;1.33;;
16159;SDS011;8185;57.818;15.224;2024-01-16T07:06:54;1.93;;;1.23;;
16159;SDS011;8185;57.818;15.224;2024-01-16T07:09:21;2.50;;;1.40;;
16159;SDS011;8185;57.818;15.224;2024-01-16T07:11:48;2.03;;;1.30;;
16159;SDS011;8185;57.818;15.224;2024-01-16T07:14:16;2.40;;;1.80;;
16159;SDS011;8185;57.818;15.224;2024-01-16T07:16:44;4.93;;;2.50;;
16159;SDS011;8185;57.818;15.224;2024-01-16T07:19:12;2.57;;;1.90;;
16159;SDS011;8185;57.818;15.224;2024-01-16T07:21:39;1.73;;;1.63;;
16159;SDS011;8185;57.818;15.224;2024-01-16T07:24:06;3.17;;;1.57;;
16159;SDS011;8185;57.818;15.224;2024-01-16T07:26:33;1.70;;;1.30;;
16159;SDS011;8185;57.818;15.224;2024-01-16T07:29:01;2.00;;;1.37;;
16159;SDS011;8185;57.818;15.224;2024-01-16T07:31:28;2.03;;;1.60;;
16159;SDS011;8185;57.818;15.224;2024-01-16T07:33:57;1.60;;;1.10;;
16159;SDS011;8185;57.818;15.224;2024-01-16T07:36:24;2.87;;;1.43;;
16159;SDS011;8185;57.818;15.224;2024-01-16T07:38:52;1.53;;;1.40;;
16159;SDS011;8185;57.818;15.224;2024-01-16T07:41:19;1.30;;;1.20;;
16159;SDS011;8185;57.818;15.224;2024-01-16T07:43:46;1.20;;;0.90;;
16159;SDS011;8185;57.818;15.224;2024-01-16T07:46:13;2.13;;;1.63;;
16159;SDS011;8185;57.818;15.224;2024-01-16T07:48:41;1.33;;;1.23;;
16159;SDS011;8185;57.818;15.224;2024-01-16T07:51:10;1.20;;;1.10;;
16159;SDS011;8185;57.818;15.224;2024-01-16T07:53:37;1.77;;;1.27;;
16159;SDS011;8185;57.818;15.224;2024-01-16T07:56:04;2.27;;;1.20;;
16159;SDS011;8185;57.818;15.224;2024-01-16T07:58:32;1.33;;;1.23;;
16159;SDS011;8185;57.818;15.224;2024-01-16T08:00:59;1.13;;;1.00;;
16159;SDS011;8185;57.818;15.224;2024-01-16T08:03:26;2.10;;;1.10;;
16159;SDS011;8185;57.818;15.224;2024-01-16T08:05:53;1.67;;;1.40;;
16159;SDS011;8185;57.818;15.224;2024-01-16T08:08:22;3.40;;;2.70;;
16159;SDS011;8185;57.818;15.224;2024-01-16T08:10:49;3.67;;;2.97;;
16159;SDS011;8185;57.818;15.224;2024-01-16T08:13:17;3.63;;;3.17;;
16159;SDS011;8185;57.818;15.224;2024-01-16T08:15:44;4.73;;;3.77;;
16159;SDS011;8185;57.818;15.224;2024-01-16T08:18:11;5.63;;;4.00;;
16159;SDS011;8185;57.818;15.224;2024-01-16T08:20:39;5.30;;;4.13;;
16159;SDS011;8185;57.818;15.224;2024-01-16T08:23:06;4.87;;;3.40;;
16159;SDS011;8185;57.818;15.224;2024-01-16T08:25:35;3.37;;;2.73;;
16159;SDS011;8185;57.818;15.224;2024-01-16T08:28:03;2.20;;;2.00;;
16159;SDS011;8185;57.818;15.224;2024-01-16T08:30:31;1.93;;;1.60;;
16159;SDS011;8185;57.818;15.224;2024-01-16T08:32:58;2.53;;;2.33;;
16159;SDS011;8185;57.818;15.224;2024-01-16T08:35:25;3.57;;;2.10;;
16159;SDS011;8185;57.818;15.224;2024-01-16T08:37:52;1.73;;;1.63;;
16159;SDS011;8185;57.818;15.224;2024-01-16T08:40:19;2.57;;;1.97;;
16159;SDS011;8185;57.818;15.224;2024-01-16T08:42:48;2.57;;;2.00;;
16159;SDS011;8185;57.818;15.224;2024-01-16T08:45:19;2.07;;;1.60;;
16159;SDS011;8185;57.818;15.224;2024-01-16T08:47:47;2.67;;;1.60;;
16159;SDS011;8185;57.818;15.224;2024-01-16T08:50:14;1.50;;;1.23;;
16159;SDS011;8185;57.818;15.224;2024-01-16T08:52:42;1.93;;;1.80;;
16159;SDS011;8185;57.818;15.224;2024-01-16T08:55:09;2.20;;;2.00;;
16159;SDS011;8185;57.818;15.224;2024-01-16T08:57:36;3.43;;;2.00;;
16159;SDS011;8185;57.818;15.224;2024-01-16T09:00:06;1.60;;;1.50;;
16159;SDS011;8185;57.818;15.224;2024-01-16T09:02:34;2.67;;;1.67;;
16159;SDS011;8185;57.818;15.224;2024-01-16T09:05:01;2.30;;;2.10;;
16159;SDS011;8185;57.818;15.224;2024-01-16T09:07:30;1.70;;;1.30;;
16159;SDS011;8185;57.818;15.224;2024-01-16T09:09:57;1.90;;;1.53;;
16159;SDS011;8185;57.818;15.224;2024-01-16T09:12:24;2.10;;;1.37;;
16159;SDS011;8185;57.818;15.224;2024-01-16T09:14:52;2.07;;;1.20;;
16159;SDS011;8185;57.818;15.224;2024-01-16T09:17:20;2.20;;;1.43;;
16159;SDS011;8185;57.818;15.224;2024-01-16T09:19:48;3.90;;;1.70;;
16159;SDS011;8185;57.818;15.224;2024-01-16T09:22:15;3.17;;;2.00;;
16159;SDS011;8185;57.818;15.224;2024-01-16T09:24:43;1.50;;;1.40;;
16159;SDS011;8185;57.818;15.224;2024-01-16T09:27:10;1.70;;;1.50;;
16159;SDS011;8185;57.818;15.224;2024-01-16T09:29:39;2.83;;;1.37;;
16159;SDS011;8185;57.818;15.224;2024-01-16T09:32:07;1.53;;;1.13;;
16159;SDS011;8185;57.818;15.224;2024-01-16T09:34:35;1.50;;;1.07;;
16159;SDS011;8185;57.818;15.224;2024-01-16T09:37:03;1.53;;;1.10;;
16159;SDS011;8185;57.818;15.224;2024-01-16T09:39:30;2.07;;;1.50;;
16159;SDS011;8185;57.818;15.224;2024-01-16T09:42:00;1.70;;;1.23;;
16159;SDS011;8185;57.818;15.224;2024-01-16T09:44:27;5.10;;;1.30;;
16159;SDS011;8185;57.818;15.224;2024-01-16T09:46:55;2.07;;;1.40;;
16159;SDS011;8185;57.818;15.224;2024-01-16T09:49:24;4.37;;;1.47;;
16159;SDS011;8185;57.818;15.224;2024-01-16T09:51:53;3.27;;;1.90;;
16159;SDS011;8185;57.818;15.224;2024-01-16T09:54:20;5.63;;;2.33;;
16159;SDS011;8185;57.818;15.224;2024-01-16T09:56:48;3.70;;;2.17;;
16159;SDS011;8185;57.818;15.224;2024-01-16T09:59:20;3.97;;;1.73;;
16159;SDS011;8185;57.818;15.224;2024-01-16T10:01:49;2.40;;;2.20;;
16159;SDS011;8185;57.818;15.224;2024-01-16T10:04:18;3.47;;;3.00;;
16159;SDS011;8185;57.818;15.224;2024-01-16T10:06:45;3.50;;;3.20;;
16159;SDS011;8185;57.818;15.224;2024-01-16T10:09:15;3.60;;;2.40;;
16159;SDS011;8185;57.818;15.224;2024-01-16T10:11:42;2.10;;;1.90;;
16159;SDS011;8185;57.818;15.224;2024-01-16T10:14:11;2.03;;;1.83;;
16159;SDS011;8185;57.818;15.224;2024-01-16T10:16:57;1.53;;;1.43;;
16159;SDS011;8185;57.818;15.224;2024-01-16T10:19:28;1.50;;;1.30;;
16159;SDS011;8185;57.818;15.224;2024-01-16T10:22:00;1.77;;;1.67;;
16159;SDS011;8185;57.818;15.224;2024-01-16T10:24:29;1.77;;;1.63;;
16159;SDS011;8185;57.818;15.224;2024-01-16T10:26:59;2.27;;;1.87;;
16159;SDS011;8185;57.818;15.224;2024-01-16T10:29:28;1.83;;;1.70;;
16159;SDS011;8185;57.818;15.224;2024-01-16T10:31:56;1.40;;;1.30;;
16159;SDS011;8185;57.818;15.224;2024-01-16T10:34:23;2.63;;;1.60;;
16159;SDS011;8185;57.818;15.224;2024-01-16T10:36:52;2.30;;;1.20;;
16159;SDS011;8185;57.818;15.224;2024-01-16T10:39:25;1.50;;;1.00;;
16159;SDS011;8185;57.818;15.224;2024-01-16T10:41:57;1.00;;;0.90;;
16159;SDS011;8185;57.818;15.224;2024-01-16T10:44:24;1.63;;;0.90;;
16159;SDS011;8185;57.818;15.224;2024-01-16T10:46:52;1.13;;;0.90;;
16159;SDS011;8185;57.818;15.224;2024-01-16T10:49:37;3.30;;;1.10;;
16159;SDS011;8185;57.818;15.224;2024-01-16T10:52:06;1.20;;;1.10;;
16159;SDS011;8185;57.818;15.224;2024-01-16T10:54:39;1.27;;;1.00;;
16159;SDS011;8185;57.818;15.224;2024-01-16T10:57:11;1.63;;;1.00;;
16159;SDS011;8185;57.818;15.224;2024-01-16T10:59:40;3.67;;;1.00;;
16159;SDS011;8185;57.818;15.224;2024-01-16T11:02:14;3.77;;;1.57;;
16159;SDS011;8185;57.818;15.224;2024-01-16T11:04:46;1.60;;;1.10;;
16159;SDS011;8185;57.818;15.224;2024-01-16T11:07:14;2.10;;;1.20;;
16159;SDS011;8185;57.818;15.224;2024-01-16T11:09:43;3.00;;;0.80;;
16159;SDS011;8185;57.818;15.224;2024-01-16T11:12:14;1.20;;;1.10;;
16159;SDS011;8185;57.818;15.224;2024-01-16T11:14:45;1.77;;;1.50;;
16159;SDS011;8185;57.818;15.224;2024-01-16T11:17:18;1.40;;;1.30;;
16159;SDS011;8185;57.818;15.224;2024-01-16T11:19:46;1.30;;;1.20;;
16159;SDS011;8185;57.818;15.224;2024-01-16T11:22:14;1.60;;;1.30;;
16159;SDS011;8185;57.818;15.224;2024-01-16T11:24:44;1.73;;;1.30;;
16159;SDS011;8185;57.818;15.224;2024-01-16T11:27:22;3.33;;;1.20;;
16159;SDS011;8185;57.818;15.224;2024-01-16T11:29:49;1.43;;;1.20;;
16159;SDS011;8185;57.818;15.224;2024-01-16T11:35:00;1.77;;;1.03;;
16159;SDS011;8185;57.818;15.224;2024-01-16T11:37:28;1.20;;;1.10;;
16159;SDS011;8185;57.818;15.224;2024-01-16T11:42:49;1.20;;;1.10;;
16159;SDS011;8185;57.818;15.224;2024-01-16T11:48:19;1.50;;;1.20;;
16159;SDS011;8185;57.818;15.224;2024-01-16T11:50:47;1.30;;;1.20;;
16159;SDS011;8185;57.818;15.224;2024-01-16T11:53:33;2.10;;;1.50;;
16159;SDS011;8185;57.818;15.224;2024-01-16T11:56:09;5.23;;;1.67;;
16159;SDS011;8185;57.818;15.224;2024-01-16T11:59:01;1.67;;;1.27;;
16159;SDS011;8185;57.818;15.224;2024-01-16T12:02:09;1.83;;;1.23;;
16159;SDS011;8185;57.818;15.224;2024-01-16T12:04:40;2.00;;;1.17;;
16159;SDS011;8185;57.818;15.224;2024-01-16T12:07:08;2.43;;;1.27;;
16159;SDS011;8185;57.818;15.224;2024-01-16T12:09:36;3.13;;;1.47;;
16159;SDS011;8185;57.818;15.224;2024-01-16T12:12:03;1.87;;;1.27;;
16159;SDS011;8185;57.818;15.224;2024-01-16T12:14:33;3.43;;;1.20;;
16159;SDS011;8185;57.818;15.224;2024-01-16T12:19:45;2.80;;;1.30;;
16159;SDS011;8185;57.818;15.224;2024-01-16T12:22:15;1.10;;;0.90;;
16159;SDS011;8185;57.818;15.224;2024-01-16T12:24:43;1.33;;;1.00;;
16159;SDS011;8185;57.818;15.224;2024-01-16T12:27:11;2.77;;;1.20;;
16159;SDS011;8185;57.818;15.224;2024-01-16T12:29:42;1.27;;;1.07;;
16159;SDS011;8185;57.818;15.224;2024-01-16T12:32:09;1.50;;;1.30;;
16159;SDS011;8185;57.818;15.224;2024-01-16T12:34:46;2.07;;;1.47;;
16159;SDS011;8185;57.818;15.224;2024-01-16T12:37:14;1.37;;;1.03;;
16159;SDS011;8185;57.818;15.224;2024-01-16T12:39:42;1.50;;;1.10;;
16159;SDS011;8185;57.818;15.224;2024-01-16T12:42:09;2.03;;;1.37;;
16159;SDS011;8185;57.818;15.224;2024-01-16T12:44:38;3.17;;;1.27;;
16159;SDS011;8185;57.818;15.224;2024-01-16T12:47:07;1.70;;;1.43;;
16159;SDS011;8185;57.818;15.224;2024-01-16T12:49:39;2.07;;;1.10;;
16159;SDS011;8185;57.818;15.224;2024-01-16T12:52:14;1.73;;;1.33;;
16159;SDS011;8185;57.818;15.224;2024-01-16T12:54:43;1.73;;;1.17;;
16159;SDS011;8185;57.818;15.224;2024-01-16T12:57:10;2.17;;;1.00;;
16159;SDS011;8185;57.818;15.224;2024-01-16T12:59:42;1.93;;;0.90;;
16159;SDS011;8185;57.818;15.224;2024-01-16T13:02:11;2.43;;;1.40;;
16159;SDS011;8185;57.818;15.224;2024-01-16T13:04:47;2.97;;;1.97;;
16159;SDS011;8185;57.818;15.224;2024-01-16T13:07:15;2.47;;;1.60;;
16159;SDS011;8185;57.818;15.224;2024-01-16T13:09:43;1.53;;;1.03;;
16159;SDS011;8185;57.818;15.224;2024-01-16T13:12:10;1.30;;;1.03;;
16159;SDS011;8185;57.818;15.224;2024-01-16T13:14:46;1.10;;;1.00;;
16159;SDS011;8185;57.818;15.224;2024-01-16T13:17:15;1.30;;;1.20;;
16159;SDS011;8185;57.818;15.224;2024-01-16T13:19:42;0.87;;;0.80;;
16159;SDS011;8185;57.818;15.224;2024-01-16T13:22:10;1.20;;;1.00;;
16159;SDS011;8185;57.818;15.224;2024-01-16T13:24:37;0.87;;;0.83;;
16159;SDS011;8185;57.818;15.224;2024-01-16T13:27:04;1.53;;;0.70;;
16159;SDS011;8185;57.818;15.224;2024-01-16T13:29:34;0.97;;;0.60;;
16159;SDS011;8185;57.818;15.224;2024-01-16T13:32:04;0.73;;;0.53;;
16159;SDS011;8185;57.818;15.224;2024-01-16T13:34:33;1.30;;;1.00;;
16159;SDS011;8185;57.818;15.224;2024-01-16T13:37:00;3.43;;;1.73;;
16159;SDS011;8185;57.818;15.224;2024-01-16T13:39:30;2.83;;;1.80;;
16159;SDS011;8185;57.818;15.224;2024-01-16T13:42:03;2.60;;;1.43;;
16159;SDS011;8185;57.818;15.224;2024-01-16T13:44:32;2.67;;;1.50;;
16159;SDS011;8185;57.818;15.224;2024-01-16T13:46:59;1.97;;;1.57;;
16159;SDS011;8185;57.818;15.224;2024-01-16T13:49:26;2.03;;;1.83;;
16159;SDS011;8185;57.818;15.224;2024-01-16T13:51:55;1.97;;;1.60;;
16159;SDS011;8185;57.818;15.224;2024-01-16T13:54:22;2.70;;;2.20;;
16159;SDS011;8185;57.818;15.224;2024-01-16T13:56:49;2.40;;;1.20;;
16159;SDS011;8185;57.818;15.224;2024-01-16T13:59:17;1.57;;;1.07;;
16159;SDS011;8185;57.818;15.224;2024-01-16T14:01:45;1.37;;;1.10;;
16159;SDS011;8185;57.818;15.224;2024-01-16T14:04:12;2.13;;;1.03;;
16159;SDS011;8185;57.818;15.224;2024-01-16T14:06:39;2.93;;;1.63;;
16159;SDS011;8185;57.818;15.224;2024-01-16T14:09:08;1.87;;;1.10;;
16159;SDS011;8185;57.818;15.224;2024-01-16T14:11:36;1.70;;;0.97;;
16159;SDS011;8185;57.818;15.224;2024-01-16T14:14:03;1.90;;;1.03;;
16159;SDS011;8185;57.818;15.224;2024-01-16T14:16:31;1.20;;;1.10;;
16159;SDS011;8185;57.818;15.224;2024-01-16T14:18:59;2.97;;;1.40;;
16159;SDS011;8185;57.818;15.224;2024-01-16T14:21:26;3.13;;;1.20;;
16159;SDS011;8185;57.818;15.224;2024-01-16T14:23:53;3.63;;;1.40;;
16159;SDS011;8185;57.818;15.224;2024-01-16T14:26:22;1.60;;;1.10;;
16159;SDS011;8185;57.818;15.224;2024-01-16T14:28:49;1.13;;;0.97;;
16159;SDS011;8185;57.818;15.224;2024-01-16T14:31:16;2.27;;;1.10;;
16159;SDS011;8185;57.818;15.224;2024-01-16T14:33:44;2.30;;;0.90;;
16159;SDS011;8185;57.818;15.224;2024-01-16T14:36:11;1.40;;;1.30;;
16159;SDS011;8185;57.818;15.224;2024-01-16T14:38:38;1.40;;;1.30;;
16159;SDS011;8185;57.818;15.224;2024-01-16T14:41:05;1.23;;;1.13;;
16159;SDS011;8185;57.818;15.224;2024-01-16T14:43:35;1.40;;;1.30;;
16159;SDS011;8185;57.818;15.224;2024-01-16T14:46:03;2.03;;;1.67;;
16159;SDS011;8185;57.818;15.224;2024-01-16T14:48:33;1.40;;;1.30;;
16159;SDS011;8185;57.818;15.224;2024-01-16T14:51:01;2.03;;;1.27;;
16159;SDS011;8185;57.818;15.224;2024-01-16T14:53:28;1.40;;;1.30;;
16159;SDS011;8185;57.818;15.224;2024-01-16T14:55:55;2.13;;;1.40;;
16159;SDS011;8185;57.818;15.224;2024-01-16T14:58:23;2.60;;;1.30;;
16159;SDS011;8185;57.818;15.224;2024-01-16T15:00:51;1.93;;;1.57;;
16159;SDS011;8185;57.818;15.224;2024-01-16T15:03:20;2.67;;;2.30;;
16159;SDS011;8185;57.818;15.224;2024-01-16T15:05:48;5.20;;;3.20;;